sensor_id;sensor_type;location;lat;lon;timestamp;P1;durP1;ratioP1;P2;durP2;ratioP2
73454;SDS011;61690;51.824;6.306;2023-01-23T00:00:32;6.18;;;3.10;;
73454;SDS011;61690;51.824;6.306;2023-01-23T00:03:01;5.90;;;3.20;;
73454;SDS011;61690;51.824;6.306;2023-01-23T00:05:27;6.18;;;3.15;;
73454;SDS011;61690;51.824;6.306;2023-01-23T00:07:52;5.90;;;3.00;;
73454;SDS011;61690;51.824;6.306;2023-01-23T00:10:18;5.27;;;2.90;;
73454;SDS011;61690;51.824;6.306;2023-01-23T00:12:44;5.80;;;3.00;;
73454;SDS011;61690;51.824;6.306;2023-01-23T00:15:13;5.93;;;2.90;;
73454;SDS011;61690;51.824;6.306;2023-01-23T00:17:40;5.23;;;2.80;;
73454;SDS011;61690;51.824;6.306;2023-01-23T00:20:07;5.68;;;2.70;;
73454;SDS011;61690;51.824;6.306;2023-01-23T00:22:33;5.30;;;3.10;;
73454;SDS011;61690;51.824;6.306;2023-01-23T00:24:59;5.13;;;2.90;;
73454;SDS011;61690;51.824;6.306;2023-01-23T00:27:24;5.90;;;2.97;;
73454;SDS011;61690;51.824;6.306;2023-01-23T00:29:53;5.63;;;2.88;;
73454;SDS011;61690;51.824;6.306;2023-01-23T00:32:18;4.95;;;2.83;;
73454;SDS011;61690;51.824;6.306;2023-01-23T00:34:45;5.00;;;3.00;;
73454;SDS011;61690;51.824;6.306;2023-01-23T00:37:10;5.20;;;2.80;;
73454;SDS011;61690;51.824;6.306;2023-01-23T00:39:36;5.40;;;2.70;;
73454;SDS011;61690;51.824;6.306;2023-01-23T00:42:01;5.57;;;2.70;;
73454;SDS011;61690;51.824;6.306;2023-01-23T00:44:26;6.00;;;3.00;;
73454;SDS011;61690;51.824;6.306;2023-01-23T00:46:52;5.77;;;2.80;;
73454;SDS011;61690;51.824;6.306;2023-01-23T00:49:17;5.20;;;2.60;;
73454;SDS011;61690;51.824;6.306;2023-01-23T00:51:43;5.15;;;2.58;;
73454;SDS011;61690;51.824;6.306;2023-01-23T00:54:09;4.77;;;2.40;;
73454;SDS011;61690;51.824;6.306;2023-01-23T00:56:35;5.38;;;2.80;;
73454;SDS011;61690;51.824;6.306;2023-01-23T00:59:00;5.47;;;2.87;;
73454;SDS011;61690;51.824;6.306;2023-01-23T01:01:25;6.17;;;2.60;;
73454;SDS011;61690;51.824;6.306;2023-01-23T01:03:52;5.00;;;2.70;;
73454;SDS011;61690;51.824;6.306;2023-01-23T01:06:18;5.17;;;2.50;;
73454;SDS011;61690;51.824;6.306;2023-01-23T01:08:43;5.50;;;2.80;;
73454;SDS011;61690;51.824;6.306;2023-01-23T01:11:09;5.50;;;3.00;;
73454;SDS011;61690;51.824;6.306;2023-01-23T01:13:34;5.28;;;2.78;;
73454;SDS011;61690;51.824;6.306;2023-01-23T01:16:00;4.83;;;2.50;;
73454;SDS011;61690;51.824;6.306;2023-01-23T01:18:26;5.20;;;2.70;;
73454;SDS011;61690;51.824;6.306;2023-01-23T01:20:52;4.90;;;2.60;;
73454;SDS011;61690;51.824;6.306;2023-01-23T01:23:18;4.78;;;2.58;;
73454;SDS011;61690;51.824;6.306;2023-01-23T01:25:44;5.18;;;2.70;;
73454;SDS011;61690;51.824;6.306;2023-01-23T01:28:09;5.90;;;2.67;;
73454;SDS011;61690;51.824;6.306;2023-01-23T01:30:35;4.70;;;2.43;;
73454;SDS011;61690;51.824;6.306;2023-01-23T01:33:00;5.38;;;2.72;;
73454;SDS011;61690;51.824;6.306;2023-01-23T01:35:26;5.30;;;2.50;;
73454;SDS011;61690;51.824;6.306;2023-01-23T01:37:51;4.87;;;2.40;;
73454;SDS011;61690;51.824;6.306;2023-01-23T01:40:18;5.03;;;2.45;;
73454;SDS011;61690;51.824;6.306;2023-01-23T01:43:05;4.93;;;2.60;;
73454;SDS011;61690;51.824;6.306;2023-01-23T01:45:54;5.00;;;2.67;;
73454;SDS011;61690;51.824;6.306;2023-01-23T01:54:49;5.22;;;2.67;;
73454;SDS011;61690;51.824;6.306;2023-01-23T01:57:26;5.10;;;2.80;;
73454;SDS011;61690;51.824;6.306;2023-01-23T01:59:56;5.22;;;2.72;;
73454;SDS011;61690;51.824;6.306;2023-01-23T02:02:34;5.40;;;2.80;;
73454;SDS011;61690;51.824;6.306;2023-01-23T02:05:27;4.75;;;2.65;;
73454;SDS011;61690;51.824;6.306;2023-01-23T02:08:11;5.38;;;2.60;;
73454;SDS011;61690;51.824;6.306;2023-01-23T02:10:38;4.80;;;2.60;;
73454;SDS011;61690;51.824;6.306;2023-01-23T02:19:04;4.80;;;2.20;;
73454;SDS011;61690;51.824;6.306;2023-01-23T02:21:41;4.57;;;2.30;;
73454;SDS011;61690;51.824;6.306;2023-01-23T02:24:29;5.40;;;2.80;;
73454;SDS011;61690;51.824;6.306;2023-01-23T02:27:01;5.00;;;2.38;;
73454;SDS011;61690;51.824;6.306;2023-01-23T02:29:27;5.75;;;2.63;;
73454;SDS011;61690;51.824;6.306;2023-01-23T02:32:04;5.28;;;2.80;;
73454;SDS011;61690;51.824;6.306;2023-01-23T02:34:30;5.30;;;3.03;;
73454;SDS011;61690;51.824;6.306;2023-01-23T02:36:55;5.10;;;2.47;;
73454;SDS011;61690;51.824;6.306;2023-01-23T02:39:20;4.70;;;2.50;;
73454;SDS011;61690;51.824;6.306;2023-01-23T02:41:47;4.87;;;2.20;;
73454;SDS011;61690;51.824;6.306;2023-01-23T02:44:17;5.05;;;2.67;;
73454;SDS011;61690;51.824;6.306;2023-01-23T02:46:49;4.70;;;2.40;;
73454;SDS011;61690;51.824;6.306;2023-01-23T02:49:14;4.77;;;2.60;;
73454;SDS011;61690;51.824;6.306;2023-01-23T02:51:39;4.90;;;2.47;;
73454;SDS011;61690;51.824;6.306;2023-01-23T02:54:05;4.93;;;2.30;;
73454;SDS011;61690;51.824;6.306;2023-01-23T02:56:30;4.57;;;2.40;;
73454;SDS011;61690;51.824;6.306;2023-01-23T02:58:55;5.03;;;2.70;;
73454;SDS011;61690;51.824;6.306;2023-01-23T03:01:39;5.13;;;2.53;;
73454;SDS011;61690;51.824;6.306;2023-01-23T03:04:05;4.93;;;2.37;;
73454;SDS011;61690;51.824;6.306;2023-01-23T03:06:32;4.90;;;2.50;;
73454;SDS011;61690;51.824;6.306;2023-01-23T03:09:02;5.18;;;2.95;;
73454;SDS011;61690;51.824;6.306;2023-01-23T03:11:29;4.37;;;2.23;;
73454;SDS011;61690;51.824;6.306;2023-01-23T03:13:55;4.57;;;2.08;;
73454;SDS011;61690;51.824;6.306;2023-01-23T03:16:20;4.67;;;2.30;;
73454;SDS011;61690;51.824;6.306;2023-01-23T03:18:45;5.90;;;2.50;;
73454;SDS011;61690;51.824;6.306;2023-01-23T03:21:11;4.55;;;2.22;;
73454;SDS011;61690;51.824;6.306;2023-01-23T03:23:38;4.93;;;2.50;;
73454;SDS011;61690;51.824;6.306;2023-01-23T03:26:04;5.63;;;2.60;;
73454;SDS011;61690;51.824;6.306;2023-01-23T03:28:30;4.60;;;2.22;;
73454;SDS011;61690;51.824;6.306;2023-01-23T03:31:14;5.22;;;2.70;;
73454;SDS011;61690;51.824;6.306;2023-01-23T03:33:40;4.57;;;2.40;;
73454;SDS011;61690;51.824;6.306;2023-01-23T03:36:10;4.93;;;2.10;;
73454;SDS011;61690;51.824;6.306;2023-01-23T03:38:36;5.03;;;2.28;;
73454;SDS011;61690;51.824;6.306;2023-01-23T03:41:02;4.75;;;2.30;;
73454;SDS011;61690;51.824;6.306;2023-01-23T03:44:07;4.78;;;2.30;;
73454;SDS011;61690;51.824;6.306;2023-01-23T03:46:33;4.72;;;2.40;;
73454;SDS011;61690;51.824;6.306;2023-01-23T03:48:59;5.07;;;2.40;;
73454;SDS011;61690;51.824;6.306;2023-01-23T03:51:24;4.83;;;2.40;;
73454;SDS011;61690;51.824;6.306;2023-01-23T03:53:49;4.60;;;2.40;;
73454;SDS011;61690;51.824;6.306;2023-01-23T03:56:15;4.90;;;2.37;;
73454;SDS011;61690;51.824;6.306;2023-01-23T03:58:40;4.90;;;2.70;;
73454;SDS011;61690;51.824;6.306;2023-01-23T04:01:06;4.30;;;2.20;;
73454;SDS011;61690;51.824;6.306;2023-01-23T04:03:32;5.55;;;2.72;;
73454;SDS011;61690;51.824;6.306;2023-01-23T04:05:57;5.50;;;2.50;;
73454;SDS011;61690;51.824;6.306;2023-01-23T04:08:23;5.23;;;2.33;;
73454;SDS011;61690;51.824;6.306;2023-01-23T04:10:49;4.70;;;2.28;;
73454;SDS011;61690;51.824;6.306;2023-01-23T04:13:14;4.50;;;2.20;;
73454;SDS011;61690;51.824;6.306;2023-01-23T04:15:40;5.00;;;1.93;;
73454;SDS011;61690;51.824;6.306;2023-01-23T04:18:05;4.87;;;2.37;;
73454;SDS011;61690;51.824;6.306;2023-01-23T04:20:30;4.43;;;2.20;;
73454;SDS011;61690;51.824;6.306;2023-01-23T04:22:56;4.90;;;2.20;;
73454;SDS011;61690;51.824;6.306;2023-01-23T04:25:21;4.70;;;2.50;;
73454;SDS011;61690;51.824;6.306;2023-01-23T04:27:46;4.90;;;2.20;;
73454;SDS011;61690;51.824;6.306;2023-01-23T04:30:12;4.47;;;2.30;;
73454;SDS011;61690;51.824;6.306;2023-01-23T04:32:38;4.60;;;2.33;;
73454;SDS011;61690;51.824;6.306;2023-01-23T04:35:03;4.90;;;2.60;;
73454;SDS011;61690;51.824;6.306;2023-01-23T04:37:29;4.80;;;2.50;;
73454;SDS011;61690;51.824;6.306;2023-01-23T04:39:54;4.50;;;2.42;;
73454;SDS011;61690;51.824;6.306;2023-01-23T04:42:19;4.47;;;2.17;;
73454;SDS011;61690;51.824;6.306;2023-01-23T04:44:45;4.97;;;2.20;;
73454;SDS011;61690;51.824;6.306;2023-01-23T04:47:10;4.47;;;2.50;;
73454;SDS011;61690;51.824;6.306;2023-01-23T04:49:35;4.50;;;2.20;;
73454;SDS011;61690;51.824;6.306;2023-01-23T04:52:01;4.03;;;2.10;;
73454;SDS011;61690;51.824;6.306;2023-01-23T04:54:26;4.68;;;2.30;;
73454;SDS011;61690;51.824;6.306;2023-01-23T04:56:52;4.00;;;2.10;;
73454;SDS011;61690;51.824;6.306;2023-01-23T04:59:17;4.70;;;2.37;;
73454;SDS011;61690;51.824;6.306;2023-01-23T05:01:42;4.50;;;2.40;;
73454;SDS011;61690;51.824;6.306;2023-01-23T05:04:08;4.40;;;2.20;;
73454;SDS011;61690;51.824;6.306;2023-01-23T05:06:33;4.87;;;2.20;;
73454;SDS011;61690;51.824;6.306;2023-01-23T05:08:59;4.40;;;2.20;;
73454;SDS011;61690;51.824;6.306;2023-01-23T05:11:24;4.57;;;2.10;;
73454;SDS011;61690;51.824;6.306;2023-01-23T05:13:50;4.15;;;1.90;;
73454;SDS011;61690;51.824;6.306;2023-01-23T05:16:15;5.00;;;2.27;;
73454;SDS011;61690;51.824;6.306;2023-01-23T05:18:40;4.10;;;2.00;;
73454;SDS011;61690;51.824;6.306;2023-01-23T05:21:06;4.37;;;2.13;;
73454;SDS011;61690;51.824;6.306;2023-01-23T05:23:31;4.13;;;2.03;;
73454;SDS011;61690;51.824;6.306;2023-01-23T05:25:57;4.30;;;2.20;;
73454;SDS011;61690;51.824;6.306;2023-01-23T05:28:22;5.30;;;2.50;;
73454;SDS011;61690;51.824;6.306;2023-01-23T05:30:48;4.37;;;2.10;;
73454;SDS011;61690;51.824;6.306;2023-01-23T05:33:13;4.10;;;2.10;;
73454;SDS011;61690;51.824;6.306;2023-01-23T05:35:38;4.67;;;2.20;;
73454;SDS011;61690;51.824;6.306;2023-01-23T05:38:04;4.90;;;2.20;;
73454;SDS011;61690;51.824;6.306;2023-01-23T05:40:30;4.20;;;2.10;;
73454;SDS011;61690;51.824;6.306;2023-01-23T05:42:55;4.37;;;2.17;;
73454;SDS011;61690;51.824;6.306;2023-01-23T05:45:20;4.93;;;2.10;;
73454;SDS011;61690;51.824;6.306;2023-01-23T05:47:46;4.70;;;2.07;;
73454;SDS011;61690;51.824;6.306;2023-01-23T05:50:16;4.10;;;2.10;;
73454;SDS011;61690;51.824;6.306;2023-01-23T05:52:43;5.25;;;2.00;;
73454;SDS011;61690;51.824;6.306;2023-01-23T05:55:08;4.13;;;1.90;;
73454;SDS011;61690;51.824;6.306;2023-01-23T05:57:34;4.20;;;2.10;;
73454;SDS011;61690;51.824;6.306;2023-01-23T06:00:00;4.20;;;2.15;;
73454;SDS011;61690;51.824;6.306;2023-01-23T06:02:25;3.93;;;1.83;;
73454;SDS011;61690;51.824;6.306;2023-01-23T06:04:51;4.40;;;1.90;;
73454;SDS011;61690;51.824;6.306;2023-01-23T06:07:16;4.20;;;1.90;;
73454;SDS011;61690;51.824;6.306;2023-01-23T06:09:42;4.25;;;1.88;;
73454;SDS011;61690;51.824;6.306;2023-01-23T06:12:08;3.90;;;1.90;;
73454;SDS011;61690;51.824;6.306;2023-01-23T06:14:34;4.07;;;2.10;;
73454;SDS011;61690;51.824;6.306;2023-01-23T06:16:59;4.40;;;1.90;;
73454;SDS011;61690;51.824;6.306;2023-01-23T06:19:25;4.43;;;2.10;;
73454;SDS011;61690;51.824;6.306;2023-01-23T06:21:50;3.97;;;2.10;;
73454;SDS011;61690;51.824;6.306;2023-01-23T06:24:16;4.17;;;2.17;;
73454;SDS011;61690;51.824;6.306;2023-01-23T06:26:41;6.20;;;2.07;;
73454;SDS011;61690;51.824;6.306;2023-01-23T06:29:06;4.63;;;2.20;;
73454;SDS011;61690;51.824;6.306;2023-01-23T06:31:32;5.80;;;2.30;;
73454;SDS011;61690;51.824;6.306;2023-01-23T06:33:57;4.87;;;2.07;;
73454;SDS011;61690;51.824;6.306;2023-01-23T06:36:23;4.82;;;2.17;;
73454;SDS011;61690;51.824;6.306;2023-01-23T06:38:49;4.83;;;2.00;;
73454;SDS011;61690;51.824;6.306;2023-01-23T06:41:15;10.77;;;2.05;;
73454;SDS011;61690;51.824;6.306;2023-01-23T06:43:40;4.47;;;2.17;;
73454;SDS011;61690;51.824;6.306;2023-01-23T06:46:08;4.80;;;2.20;;
73454;SDS011;61690;51.824;6.306;2023-01-23T06:48:35;4.18;;;1.80;;
73454;SDS011;61690;51.824;6.306;2023-01-23T06:51:01;4.35;;;2.08;;
73454;SDS011;61690;51.824;6.306;2023-01-23T06:53:27;3.60;;;1.67;;
73454;SDS011;61690;51.824;6.306;2023-01-23T06:55:53;3.97;;;1.77;;
73454;SDS011;61690;51.824;6.306;2023-01-23T06:58:23;4.93;;;1.90;;
73454;SDS011;61690;51.824;6.306;2023-01-23T07:00:49;4.20;;;2.00;;
73454;SDS011;61690;51.824;6.306;2023-01-23T07:03:14;4.40;;;1.97;;
73454;SDS011;61690;51.824;6.306;2023-01-23T07:05:40;4.95;;;2.10;;
73454;SDS011;61690;51.824;6.306;2023-01-23T07:08:07;4.20;;;2.00;;
73454;SDS011;61690;51.824;6.306;2023-01-23T07:10:33;4.65;;;2.05;;
73454;SDS011;61690;51.824;6.306;2023-01-23T07:13:01;6.70;;;2.08;;
73454;SDS011;61690;51.824;6.306;2023-01-23T07:15:30;5.20;;;2.00;;
73454;SDS011;61690;51.824;6.306;2023-01-23T07:17:56;4.97;;;2.10;;
73454;SDS011;61690;51.824;6.306;2023-01-23T07:20:21;4.50;;;2.00;;
73454;SDS011;61690;51.824;6.306;2023-01-23T07:22:51;3.85;;;1.80;;
73454;SDS011;61690;51.824;6.306;2023-01-23T07:25:16;3.87;;;1.80;;
73454;SDS011;61690;51.824;6.306;2023-01-23T07:27:41;4.17;;;1.80;;
73454;SDS011;61690;51.824;6.306;2023-01-23T07:30:07;4.60;;;1.70;;
73454;SDS011;61690;51.824;6.306;2023-01-23T07:32:33;4.00;;;1.60;;
73454;SDS011;61690;51.824;6.306;2023-01-23T07:34:58;4.70;;;1.87;;
73454;SDS011;61690;51.824;6.306;2023-01-23T07:37:23;4.37;;;2.00;;
73454;SDS011;61690;51.824;6.306;2023-01-23T07:39:49;4.30;;;1.97;;
73454;SDS011;61690;51.824;6.306;2023-01-23T07:42:14;4.15;;;1.58;;
73454;SDS011;61690;51.824;6.306;2023-01-23T07:44:39;4.47;;;1.77;;
73454;SDS011;61690;51.824;6.306;2023-01-23T07:47:05;4.20;;;1.80;;
73454;SDS011;61690;51.824;6.306;2023-01-23T07:49:30;4.43;;;1.90;;
73454;SDS011;61690;51.824;6.306;2023-01-23T07:51:55;4.20;;;1.60;;
73454;SDS011;61690;51.824;6.306;2023-01-23T07:54:20;5.73;;;1.83;;
73454;SDS011;61690;51.824;6.306;2023-01-23T07:56:47;4.20;;;1.90;;
73454;SDS011;61690;51.824;6.306;2023-01-23T07:59:14;4.20;;;1.73;;
73454;SDS011;61690;51.824;6.306;2023-01-23T08:01:39;4.60;;;1.90;;
73454;SDS011;61690;51.824;6.306;2023-01-23T08:04:04;5.63;;;1.80;;
73454;SDS011;61690;51.824;6.306;2023-01-23T08:06:30;5.27;;;1.90;;
73454;SDS011;61690;51.824;6.306;2023-01-23T08:08:55;4.60;;;1.80;;
73454;SDS011;61690;51.824;6.306;2023-01-23T08:11:23;4.03;;;1.60;;
73454;SDS011;61690;51.824;6.306;2023-01-23T08:13:50;3.90;;;1.45;;
73454;SDS011;61690;51.824;6.306;2023-01-23T08:16:16;4.00;;;1.77;;
73454;SDS011;61690;51.824;6.306;2023-01-23T08:18:42;4.20;;;1.70;;
73454;SDS011;61690;51.824;6.306;2023-01-23T08:21:08;4.77;;;1.60;;
73454;SDS011;61690;51.824;6.306;2023-01-23T08:23:34;4.50;;;1.67;;
73454;SDS011;61690;51.824;6.306;2023-01-23T08:26:00;5.45;;;1.70;;
73454;SDS011;61690;51.824;6.306;2023-01-23T08:28:27;4.97;;;1.50;;
73454;SDS011;61690;51.824;6.306;2023-01-23T08:30:53;5.63;;;1.50;;
73454;SDS011;61690;51.824;6.306;2023-01-23T08:33:19;3.97;;;1.60;;
73454;SDS011;61690;51.824;6.306;2023-01-23T08:35:52;4.75;;;1.60;;
73454;SDS011;61690;51.824;6.306;2023-01-23T08:38:19;4.27;;;1.60;;
73454;SDS011;61690;51.824;6.306;2023-01-23T08:40:45;4.90;;;1.60;;
73454;SDS011;61690;51.824;6.306;2023-01-23T08:43:11;3.78;;;1.50;;
73454;SDS011;61690;51.824;6.306;2023-01-23T08:45:38;5.17;;;1.57;;
73454;SDS011;61690;51.824;6.306;2023-01-23T08:48:04;3.90;;;1.60;;
73454;SDS011;61690;51.824;6.306;2023-01-23T08:50:30;6.90;;;1.48;;
73454;SDS011;61690;51.824;6.306;2023-01-23T08:52:55;4.43;;;1.77;;
73454;SDS011;61690;51.824;6.306;2023-01-23T08:55:20;3.65;;;1.55;;
73454;SDS011;61690;51.824;6.306;2023-01-23T08:57:46;5.40;;;1.50;;
73454;SDS011;61690;51.824;6.306;2023-01-23T09:00:11;4.03;;;1.90;;
73454;SDS011;61690;51.824;6.306;2023-01-23T09:02:37;4.65;;;1.73;;
73454;SDS011;61690;51.824;6.306;2023-01-23T09:05:02;4.97;;;1.70;;
73454;SDS011;61690;51.824;6.306;2023-01-23T09:07:28;5.15;;;1.52;;
73454;SDS011;61690;51.824;6.306;2023-01-23T09:09:54;5.60;;;1.67;;
73454;SDS011;61690;51.824;6.306;2023-01-23T09:12:19;4.00;;;1.60;;
73454;SDS011;61690;51.824;6.306;2023-01-23T09:14:44;5.63;;;1.60;;
73454;SDS011;61690;51.824;6.306;2023-01-23T09:17:10;4.75;;;1.58;;
73454;SDS011;61690;51.824;6.306;2023-01-23T09:19:35;4.50;;;1.70;;
73454;SDS011;61690;51.824;6.306;2023-01-23T09:22:01;7.75;;;1.75;;
73454;SDS011;61690;51.824;6.306;2023-01-23T09:24:26;3.90;;;1.23;;
73454;SDS011;61690;51.824;6.306;2023-01-23T09:26:52;4.32;;;1.67;;
73454;SDS011;61690;51.824;6.306;2023-01-23T09:29:17;4.80;;;1.60;;
73454;SDS011;61690;51.824;6.306;2023-01-23T09:31:42;5.37;;;1.50;;
73454;SDS011;61690;51.824;6.306;2023-01-23T09:34:08;3.60;;;1.50;;
73454;SDS011;61690;51.824;6.306;2023-01-23T09:36:33;5.47;;;2.00;;
73454;SDS011;61690;51.824;6.306;2023-01-23T09:38:59;4.37;;;1.70;;
73454;SDS011;61690;51.824;6.306;2023-01-23T09:41:25;4.65;;;1.60;;
73454;SDS011;61690;51.824;6.306;2023-01-23T09:46:25;5.90;;;1.60;;
73454;SDS011;61690;51.824;6.306;2023-01-23T09:49:02;4.47;;;1.40;;
73454;SDS011;61690;51.824;6.306;2023-01-23T09:54:19;6.30;;;1.50;;
73454;SDS011;61690;51.824;6.306;2023-01-23T09:56:47;6.38;;;1.40;;
73454;SDS011;61690;51.824;6.306;2023-01-23T09:59:58;6.60;;;1.60;;
73454;SDS011;61690;51.824;6.306;2023-01-23T10:02:15;4.00;;;1.60;;
73454;SDS011;61690;51.824;6.306;2023-01-23T10:04:44;4.63;;;1.55;;
73454;SDS011;61690;51.824;6.306;2023-01-23T10:10:11;6.30;;;1.60;;
73454;SDS011;61690;51.824;6.306;2023-01-23T10:12:56;4.65;;;1.60;;
73454;SDS011;61690;51.824;6.306;2023-01-23T10:18:21;4.25;;;1.60;;
73454;SDS011;61690;51.824;6.306;2023-01-23T10:20:57;5.30;;;1.50;;
73454;SDS011;61690;51.824;6.306;2023-01-23T10:26:41;5.65;;;1.52;;
73454;SDS011;61690;51.824;6.306;2023-01-23T10:29:20;5.30;;;1.52;;
73454;SDS011;61690;51.824;6.306;2023-01-23T10:31:55;5.32;;;1.50;;
73454;SDS011;61690;51.824;6.306;2023-01-23T10:34:27;5.35;;;1.63;;
73454;SDS011;61690;51.824;6.306;2023-01-23T10:37:04;6.50;;;1.52;;
73454;SDS011;61690;51.824;6.306;2023-01-23T10:42:11;5.63;;;1.60;;
73454;SDS011;61690;51.824;6.306;2023-01-23T10:44:37;4.60;;;1.63;;
73454;SDS011;61690;51.824;6.306;2023-01-23T10:47:03;6.75;;;1.60;;
73454;SDS011;61690;51.824;6.306;2023-01-23T10:49:42;4.80;;;1.60;;
73454;SDS011;61690;51.824;6.306;2023-01-23T10:52:43;4.07;;;1.40;;
73454;SDS011;61690;51.824;6.306;2023-01-23T10:55:02;4.30;;;1.42;;
73454;SDS011;61690;51.824;6.306;2023-01-23T10:57:36;4.22;;;1.60;;
73454;SDS011;61690;51.824;6.306;2023-01-23T11:02:53;5.40;;;1.70;;
73454;SDS011;61690;51.824;6.306;2023-01-23T11:05:35;4.83;;;1.53;;
73454;SDS011;61690;51.824;6.306;2023-01-23T11:08:07;6.50;;;1.80;;
73454;SDS011;61690;51.824;6.306;2023-01-23T11:10:46;5.70;;;1.67;;
73454;SDS011;61690;51.824;6.306;2023-01-23T11:13:20;4.53;;;1.80;;
73454;SDS011;61690;51.824;6.306;2023-01-23T11:15:49;4.65;;;1.48;;
73454;SDS011;61690;51.824;6.306;2023-01-23T11:21:19;4.85;;;1.75;;
73454;SDS011;61690;51.824;6.306;2023-01-23T11:23:46;5.05;;;1.80;;
73454;SDS011;61690;51.824;6.306;2023-01-23T11:26:30;4.20;;;1.50;;
73454;SDS011;61690;51.824;6.306;2023-01-23T11:28:57;5.50;;;1.77;;
73454;SDS011;61690;51.824;6.306;2023-01-23T11:31:22;4.30;;;1.63;;
73454;SDS011;61690;51.824;6.306;2023-01-23T11:39:27;5.47;;;1.40;;
73454;SDS011;61690;51.824;6.306;2023-01-23T11:42:12;5.80;;;1.70;;
73454;SDS011;61690;51.824;6.306;2023-01-23T11:44:40;4.28;;;1.60;;
73454;SDS011;61690;51.824;6.306;2023-01-23T12:11:33;3.92;;;1.52;;
73454;SDS011;61690;51.824;6.306;2023-01-23T12:14:23;4.68;;;1.55;;
73454;SDS011;61690;51.824;6.306;2023-01-23T12:17:00;5.20;;;1.60;;
73454;SDS011;61690;51.824;6.306;2023-01-23T12:22:09;5.05;;;1.70;;
73454;SDS011;61690;51.824;6.306;2023-01-23T12:28:21;4.60;;;1.50;;
73454;SDS011;61690;51.824;6.306;2023-01-23T12:42:20;5.53;;;1.67;;
73454;SDS011;61690;51.824;6.306;2023-01-23T12:47:19;4.68;;;1.40;;
73454;SDS011;61690;51.824;6.306;2023-01-23T12:52:24;4.38;;;1.40;;
73454;SDS011;61690;51.824;6.306;2023-01-23T12:57:28;4.43;;;1.50;;
73454;SDS011;61690;51.824;6.306;2023-01-23T13:08:53;3.90;;;1.40;;
73454;SDS011;61690;51.824;6.306;2023-01-23T13:14:35;4.60;;;1.67;;
73454;SDS011;61690;51.824;6.306;2023-01-23T13:17:26;4.82;;;1.77;;
73454;SDS011;61690;51.824;6.306;2023-01-23T13:23:19;4.97;;;1.70;;
73454;SDS011;61690;51.824;6.306;2023-01-23T13:28:50;3.72;;;1.38;;
73454;SDS011;61690;51.824;6.306;2023-01-23T13:33:59;4.35;;;1.60;;
73454;SDS011;61690;51.824;6.306;2023-01-23T13:36:51;4.25;;;1.73;;
73454;SDS011;61690;51.824;6.306;2023-01-23T13:39:23;6.63;;;1.70;;
73454;SDS011;61690;51.824;6.306;2023-01-23T13:51:06;4.30;;;1.73;;
73454;SDS011;61690;51.824;6.306;2023-01-23T13:53:43;4.77;;;1.57;;
73454;SDS011;61690;51.824;6.306;2023-01-23T13:56:29;5.32;;;1.80;;
73454;SDS011;61690;51.824;6.306;2023-01-23T13:59:11;4.82;;;1.60;;
73454;SDS011;61690;51.824;6.306;2023-01-23T14:01:46;4.00;;;1.65;;
73454;SDS011;61690;51.824;6.306;2023-01-23T14:04:34;3.83;;;1.60;;
73454;SDS011;61690;51.824;6.306;2023-01-23T14:10:14;4.20;;;1.65;;
73454;SDS011;61690;51.824;6.306;2023-01-23T14:12:49;4.75;;;1.58;;
73454;SDS011;61690;51.824;6.306;2023-01-23T14:15:25;4.88;;;1.77;;
73454;SDS011;61690;51.824;6.306;2023-01-23T14:18:17;5.13;;;1.67;;
73454;SDS011;61690;51.824;6.306;2023-01-23T14:20:43;4.33;;;1.70;;
73454;SDS011;61690;51.824;6.306;2023-01-23T14:23:16;3.95;;;1.60;;
73454;SDS011;61690;51.824;6.306;2023-01-23T14:25:47;4.25;;;1.67;;
73454;SDS011;61690;51.824;6.306;2023-01-23T14:28:14;4.20;;;1.80;;
73454;SDS011;61690;51.824;6.306;2023-01-23T14:30:50;3.92;;;1.73;;
73454;SDS011;61690;51.824;6.306;2023-01-23T14:33:17;5.25;;;1.90;;
73454;SDS011;61690;51.824;6.306;2023-01-23T14:35:43;4.00;;;1.60;;
73454;SDS011;61690;51.824;6.306;2023-01-23T14:38:10;3.92;;;1.70;;
73454;SDS011;61690;51.824;6.306;2023-01-23T14:40:46;5.32;;;1.70;;
73454;SDS011;61690;51.824;6.306;2023-01-23T14:43:15;5.30;;;1.90;;
73454;SDS011;61690;51.824;6.306;2023-01-23T14:45:45;5.07;;;1.70;;
73454;SDS011;61690;51.824;6.306;2023-01-23T14:48:13;4.63;;;1.90;;
73454;SDS011;61690;51.824;6.306;2023-01-23T14:50:41;3.90;;;1.60;;
73454;SDS011;61690;51.824;6.306;2023-01-23T14:53:13;4.25;;;1.73;;
73454;SDS011;61690;51.824;6.306;2023-01-23T14:55:41;4.90;;;1.67;;
73454;SDS011;61690;51.824;6.306;2023-01-23T14:58:17;4.38;;;1.60;;
73454;SDS011;61690;51.824;6.306;2023-01-23T15:00:46;4.20;;;1.80;;
73454;SDS011;61690;51.824;6.306;2023-01-23T15:03:26;4.20;;;1.90;;
73454;SDS011;61690;51.824;6.306;2023-01-23T15:05:58;4.40;;;1.67;;
73454;SDS011;61690;51.824;6.306;2023-01-23T15:08:26;4.40;;;1.83;;
73454;SDS011;61690;51.824;6.306;2023-01-23T15:10:56;4.63;;;1.87;;
73454;SDS011;61690;51.824;6.306;2023-01-23T15:13:25;4.57;;;1.67;;
73454;SDS011;61690;51.824;6.306;2023-01-23T15:15:57;4.70;;;1.80;;
73454;SDS011;61690;51.824;6.306;2023-01-23T15:18:26;4.30;;;2.00;;
73454;SDS011;61690;51.824;6.306;2023-01-23T15:20:57;4.25;;;2.00;;
73454;SDS011;61690;51.824;6.306;2023-01-23T15:23:25;4.50;;;2.00;;
73454;SDS011;61690;51.824;6.306;2023-01-23T15:26:17;4.65;;;1.90;;
73454;SDS011;61690;51.824;6.306;2023-01-23T15:31:24;4.45;;;2.00;;
73454;SDS011;61690;51.824;6.306;2023-01-23T15:33:55;4.68;;;1.90;;
73454;SDS011;61690;51.824;6.306;2023-01-23T15:36:34;4.40;;;2.00;;
73454;SDS011;61690;51.824;6.306;2023-01-23T15:38:59;4.78;;;2.08;;
73454;SDS011;61690;51.824;6.306;2023-01-23T15:41:44;4.27;;;1.80;;
73454;SDS011;61690;51.824;6.306;2023-01-23T15:44:16;5.63;;;1.98;;
73454;SDS011;61690;51.824;6.306;2023-01-23T15:46:43;4.30;;;1.90;;
73454;SDS011;61690;51.824;6.306;2023-01-23T15:49:09;4.72;;;1.80;;
73454;SDS011;61690;51.824;6.306;2023-01-23T15:51:34;4.97;;;2.20;;
73454;SDS011;61690;51.824;6.306;2023-01-23T15:54:00;4.70;;;1.92;;
73454;SDS011;61690;51.824;6.306;2023-01-23T15:56:28;5.47;;;2.03;;
73454;SDS011;61690;51.824;6.306;2023-01-23T15:58:56;5.00;;;1.80;;
73454;SDS011;61690;51.824;6.306;2023-01-23T16:01:23;4.50;;;2.15;;
73454;SDS011;61690;51.824;6.306;2023-01-23T16:03:48;4.17;;;1.90;;
73454;SDS011;61690;51.824;6.306;2023-01-23T16:06:20;4.20;;;2.00;;
73454;SDS011;61690;51.824;6.306;2023-01-23T16:08:48;4.83;;;2.00;;
73454;SDS011;61690;51.824;6.306;2023-01-23T16:11:15;4.93;;;2.10;;
73454;SDS011;61690;51.824;6.306;2023-01-23T16:13:41;4.30;;;1.90;;
73454;SDS011;61690;51.824;6.306;2023-01-23T16:16:12;4.50;;;1.70;;
73454;SDS011;61690;51.824;6.306;2023-01-23T16:18:39;5.25;;;1.92;;
73454;SDS011;61690;51.824;6.306;2023-01-23T16:21:04;4.30;;;1.97;;
73454;SDS011;61690;51.824;6.306;2023-01-23T16:23:30;4.60;;;2.00;;
73454;SDS011;61690;51.824;6.306;2023-01-23T16:25:55;4.10;;;1.70;;
73454;SDS011;61690;51.824;6.306;2023-01-23T16:28:22;4.88;;;1.92;;
73454;SDS011;61690;51.824;6.306;2023-01-23T16:30:50;5.33;;;1.80;;
73454;SDS011;61690;51.824;6.306;2023-01-23T16:33:16;4.22;;;1.90;;
73454;SDS011;61690;51.824;6.306;2023-01-23T16:35:42;4.55;;;1.90;;
73454;SDS011;61690;51.824;6.306;2023-01-23T16:38:13;4.75;;;2.25;;
73454;SDS011;61690;51.824;6.306;2023-01-23T16:40:43;4.18;;;1.98;;
73454;SDS011;61690;51.824;6.306;2023-01-23T16:43:09;4.30;;;2.00;;
73454;SDS011;61690;51.824;6.306;2023-01-23T16:45:34;4.50;;;1.80;;
73454;SDS011;61690;51.824;6.306;2023-01-23T16:47:59;4.90;;;2.20;;
73454;SDS011;61690;51.824;6.306;2023-01-23T16:50:27;4.30;;;2.00;;
73454;SDS011;61690;51.824;6.306;2023-01-23T16:53:08;4.35;;;1.90;;
73454;SDS011;61690;51.824;6.306;2023-01-23T16:55:42;4.97;;;2.10;;
73454;SDS011;61690;51.824;6.306;2023-01-23T16:58:12;3.90;;;1.80;;
73454;SDS011;61690;51.824;6.306;2023-01-23T17:00:41;5.13;;;2.10;;
73454;SDS011;61690;51.824;6.306;2023-01-23T17:03:07;4.50;;;1.92;;